METAR Data
IDs: Format: Raw Decoded Include TAF

Data at: 0823 UTC 30 Oct 2020

KSCH 300158Z COR 02008KT 7SM -RA OVC009 05/05 A2979 RMK LAST
KSCH 300045Z 04012G16KT 7SM BKN013 BKN021 OVC036 05/05 A2975
KSCH 292350Z 04010G15KT 5SM -RA SCT010 BKN015 OVC021 06/06 A2975
KSCH 292253Z 04009KT 5SM -RA BKN006 BKN011 OVC019 06/06 A2974
KSCH 292145Z 03004KT 4SM RA SCT008 SCT046 OVC060 06/06 A2976
KSCH 292059Z 03004KT 4SM RA BKN012 BKN046 OVC070 07/07 A2976
KSCH 291951Z 03006KT 4SM RA BKN006 BKN019 OVC070 07/07 A2976
KSCH 291850Z 02005KT 5SM RA BKN007 BKN014 OVC026 07/07 A2978
KSCH 291745Z 00000KT 3SM RA OVC007 07/07 A2983
KSCH 291650Z 00000KT 3SM -RABR OVC003 07/07 A2986
KSCH 291550Z 00000KT 5SM -RABR OVC003 07/07 A2985
KSCH 291448Z 00000KT 7SM OVC003 06/06 A2987 RMK BR
KSCH 291346Z 00000KT 10SM OVC003 06/06 A2990
KSCH 291249Z 00000KT 10SM OVC003 05/05 A2991
KSCH 291217Z 00000KT 10SM BKN003 BKN110 05/05 A2991
KSCH 291155Z 00000KT 10SM SCT110 05/05 A2991 RMK FIRST
KSCH 290148Z 00000KT 1/4SM FG OVC001 07/07 A2998 RMK LAST
KSCH 290046Z 00000KT 1/4SM FG OVC001 06/06 A2997
KSCH 290004Z 00000KT 3/4SM BR BKN003 BKN025 BKN034 08/07 A2998
KSCH 282347Z 00000KT 7SM SCT005 BKN025 OVC043 08/08 A2998
KSCH 282245Z 00000KT 1SM BR OVC020 08/08 A2997
KSCH 282150Z 00000KT 10SM BKN008 BKN050 09/09 A2995
KSCH 282046Z 00000KT 10SM BKN008 OVC014 10/09 A2995